createdAt,value
2024-02-09T00:00:41.768Z,97455.38
2024-02-09T00:03:30.039Z,97453.55
2024-02-09T00:05:57.937Z,97458.45
2024-02-09T00:08:25.898Z,97454.62
2024-02-09T00:10:54.072Z,97455.90
2024-02-09T00:13:21.841Z,97454.98
2024-02-09T00:15:49.901Z,97453.98
2024-02-09T00:18:18.703Z,97452.48
2024-02-09T00:20:48.543Z,97450.58
2024-02-09T00:23:16.981Z,97456.34
2024-02-09T00:25:44.988Z,97458.55
2024-02-09T00:28:13.498Z,97459.55
2024-02-09T00:30:42.394Z,97461.27
2024-02-09T00:33:10.793Z,97462.52
2024-02-09T00:35:42.451Z,97459.80
2024-02-09T00:38:11.250Z,97456.14
2024-02-09T00:40:40.556Z,97457.48
2024-02-09T00:43:08.966Z,97455.61
2024-02-09T00:45:36.814Z,97450.80
2024-02-09T00:48:05.367Z,97449.93
2024-02-09T00:50:33.796Z,97449.08
2024-02-09T00:53:01.618Z,97451.48
2024-02-09T00:55:30.801Z,97451.59
2024-02-09T00:57:59.223Z,97449.40
2024-02-09T01:00:31.898Z,97444.31
2024-02-09T01:03:04.348Z,97444.30
2024-02-09T01:05:34.373Z,97444.30
2024-02-09T01:08:05.950Z,97443.90
2024-02-09T01:10:33.836Z,97438.48
2024-02-09T01:13:20.721Z,97439.86
2024-02-09T01:16:07.319Z,97441.84
2024-02-09T01:18:53.680Z,97440.18
2024-02-09T01:21:40.443Z,97438.70
2024-02-09T01:24:26.833Z,97440.13
2024-02-09T01:27:13.490Z,97439.85
2024-02-09T01:30:00.013Z,97438.73
2024-02-09T01:32:46.728Z,97436.46
2024-02-09T01:35:33.099Z,97439.50
2024-02-09T01:38:19.455Z,97434.94
2024-02-09T01:41:05.878Z,97433.11
2024-02-09T01:43:52.823Z,97431.58
2024-02-09T01:46:40.940Z,97427.23
2024-02-09T01:49:27.349Z,97432.64
2024-02-09T01:52:14.553Z,97428.31
2024-02-09T01:55:01.042Z,97426.58
2024-02-09T01:57:47.791Z,97425.44
2024-02-09T02:00:34.305Z,97426.23
2024-02-09T02:03:22.208Z,97424.00
2024-02-09T02:06:09.331Z,97419.16
2024-02-09T02:08:55.613Z,97417.27
2024-02-09T02:11:41.810Z,97417.75
2024-02-09T02:14:28.470Z,97421.70
2024-02-09T02:17:14.951Z,97421.14
2024-02-09T02:20:01.626Z,97423.09
2024-02-09T02:22:51.889Z,97422.98
2024-02-09T02:25:38.614Z,97423.55
2024-02-09T02:28:30.418Z,97422.30
2024-02-09T02:31:17.184Z,97411.27
2024-02-09T02:34:04.050Z,97412.41
2024-02-09T02:36:50.815Z,97405.16
2024-02-09T02:39:37.111Z,97402.73
2024-02-09T02:42:04.897Z,97399.84
2024-02-09T02:44:32.615Z,97393.70
2024-02-09T02:47:02.304Z,97396.91
2024-02-09T02:49:49.672Z,97397.01
2024-02-09T02:52:36.037Z,97392.66
2024-02-09T02:55:22.930Z,97392.00
2024-02-09T02:58:09.664Z,97389.13
2024-02-09T03:00:56.268Z,97386.03
2024-02-09T03:03:42.948Z,97381.39
2024-02-09T03:06:12.035Z,97381.60
2024-02-09T03:08:47.282Z,97377.88
2024-02-09T03:11:18.397Z,97377.15
2024-02-09T03:13:46.232Z,97375.19
2024-02-09T03:16:18.528Z,97375.95
2024-02-09T03:18:46.419Z,97373.73
2024-02-09T03:21:21.211Z,97377.73
2024-02-09T03:23:49.129Z,97381.68
2024-02-09T03:26:16.885Z,97387.07
2024-02-09T03:28:44.788Z,97386.46
2024-02-09T03:31:14.074Z,97390.88
2024-02-09T03:33:41.990Z,97395.02
2024-02-09T03:36:10.310Z,97399.83
2024-02-09T03:38:37.987Z,97398.18
2024-02-09T03:41:06.158Z,97390.12
2024-02-09T03:43:34.317Z,97383.75
2024-02-09T03:46:02.397Z,97379.66
2024-02-09T03:48:30.373Z,97374.35
2024-02-09T03:50:58.261Z,97379.33
2024-02-09T03:53:25.877Z,97375.69
2024-02-09T03:55:53.563Z,97374.08
2024-02-09T03:58:21.311Z,97379.20
2024-02-09T04:00:49.080Z,97374.84
2024-02-09T04:03:16.848Z,97372.98
2024-02-09T04:05:47.023Z,97370.73
2024-02-09T04:08:14.821Z,97367.51
2024-02-09T04:10:44.441Z,97359.92
2024-02-09T04:13:15.445Z,97356.15
2024-02-09T04:15:43.324Z,97358.78
2024-02-09T04:18:11.574Z,97357.58
2024-02-09T04:20:39.937Z,97364.13
2024-02-09T04:23:08.963Z,97363.43
2024-02-09T04:25:38.016Z,97357.41
2024-02-09T04:28:06.424Z,97360.37
2024-02-09T04:30:34.329Z,97357.66
2024-02-09T04:33:02.218Z,97356.52
2024-02-09T04:35:30.098Z,97355.20
2024-02-09T04:37:57.786Z,97355.65
2024-02-09T04:40:26.747Z,97358.48
2024-02-09T04:42:54.651Z,97358.58
2024-02-09T04:45:23.837Z,97357.98
2024-02-09T04:47:52.032Z,97356.98
2024-02-09T04:50:22.479Z,97354.66
2024-02-09T04:52:51.083Z,97345.64
2024-02-09T04:55:19.504Z,97340.99
2024-02-09T04:57:47.217Z,97338.92
2024-02-09T05:00:15.253Z,97332.92
2024-02-09T05:02:45.790Z,97331.77
2024-02-09T05:05:14.223Z,97330.52
2024-02-09T05:07:42.719Z,97338.35
2024-02-09T05:10:12.777Z,97340.33
2024-02-09T05:12:40.855Z,97344.09
2024-02-09T05:15:09.078Z,97343.89
2024-02-09T05:17:41.244Z,97336.66
2024-02-09T05:20:10.137Z,97332.35
2024-02-09T05:22:37.942Z,97331.91
2024-02-09T05:25:06.356Z,97336.04
2024-02-09T05:27:34.279Z,97337.54
2024-02-09T05:30:02.160Z,97343.03
2024-02-09T05:32:31.466Z,97336.32
2024-02-09T05:34:59.482Z,97335.17
2024-02-09T05:37:27.720Z,97334.36
2024-02-09T05:39:57.783Z,97333.34
2024-02-09T05:42:25.969Z,97325.89
2024-02-09T05:44:53.810Z,97323.52
2024-02-09T05:47:21.607Z,97324.48
2024-02-09T05:49:49.558Z,97329.61
2024-02-09T05:52:17.429Z,97325.79
2024-02-09T05:54:45.205Z,97324.96
2024-02-09T05:57:14.848Z,97318.66
2024-02-09T05:59:45.215Z,97318.40
2024-02-09T06:02:12.929Z,97318.00
2024-02-09T06:04:41.362Z,97322.48
2024-02-09T06:07:09.288Z,97327.58
2024-02-09T06:09:38.316Z,97327.66
2024-02-09T06:12:06.736Z,97332.10
2024-02-09T06:14:34.847Z,97337.61
2024-02-09T06:17:02.573Z,97337.16
2024-02-09T06:19:30.759Z,97334.50
2024-02-09T06:21:58.758Z,97336.33
2024-02-09T06:24:26.774Z,97335.60
2024-02-09T06:26:54.563Z,97332.58
2024-02-09T06:29:22.794Z,97328.06
2024-02-09T06:31:54.412Z,97326.90
2024-02-09T06:34:23.454Z,97328.67
2024-02-09T06:36:51.394Z,97324.14
2024-02-09T06:39:19.204Z,97318.30
2024-02-09T06:41:48.378Z,97320.42
2024-02-09T06:44:16.428Z,97318.38
2024-02-09T06:46:44.208Z,97319.48
2024-02-09T06:49:12.153Z,97308.81
2024-02-09T06:51:40.189Z,97310.27
2024-02-09T06:54:08.018Z,97303.60
2024-02-09T06:56:35.795Z,97296.83
2024-02-09T06:59:05.942Z,97296.98
2024-02-09T07:01:33.722Z,97297.95
2024-02-09T07:04:01.733Z,97291.40
2024-02-09T07:06:29.702Z,97290.77
2024-02-09T07:08:57.463Z,97286.17
2024-02-09T07:11:26.052Z,97287.48
2024-02-09T07:13:54.004Z,97294.13
2024-02-09T07:16:21.837Z,97298.45
2024-02-09T07:18:49.784Z,97299.29
2024-02-09T07:21:18.252Z,97303.30
2024-02-09T07:23:51.774Z,97300.52
2024-02-09T07:26:22.136Z,97301.48
2024-02-09T07:28:50.423Z,97301.02
2024-02-09T07:31:18.574Z,97301.06
2024-02-09T07:33:48.042Z,97294.88
2024-02-09T07:36:16.051Z,97291.09
2024-02-09T07:38:44.203Z,97289.89
2024-02-09T07:41:20.809Z,97290.86
2024-02-09T07:43:49.041Z,97285.67
2024-02-09T07:46:17.300Z,97276.59
2024-02-09T07:48:46.003Z,97283.55
2024-02-09T07:51:17.491Z,97282.86
2024-02-09T07:53:54.139Z,97280.73
2024-02-09T07:56:25.949Z,97282.34
2024-02-09T07:58:53.898Z,97281.77
2024-02-09T08:01:23.028Z,97282.91
2024-02-09T08:03:54.776Z,97281.05
2024-02-09T08:06:23.156Z,97277.21
2024-02-09T08:08:54.528Z,97275.03
2024-02-09T08:11:23.863Z,97270.91
2024-02-09T08:13:55.429Z,97271.11
2024-02-09T08:16:23.664Z,97267.08
2024-02-09T08:18:51.857Z,97261.70
2024-02-09T08:21:20.074Z,97256.27
2024-02-09T08:23:47.902Z,97253.20
2024-02-09T08:26:15.851Z,97253.77
2024-02-09T08:28:48.597Z,97255.15
2024-02-09T08:31:18.398Z,97256.08
2024-02-09T08:33:50.584Z,97248.00
2024-02-09T08:36:22.630Z,97241.77
2024-02-09T08:38:51.687Z,97238.22
2024-02-09T08:41:19.908Z,97235.64
2024-02-09T08:43:48.224Z,97227.69
2024-02-09T08:46:16.521Z,97229.35
2024-02-09T08:48:44.600Z,97232.98
2024-02-09T08:51:12.583Z,97238.08
2024-02-09T08:53:41.863Z,97230.31
2024-02-09T08:56:13.211Z,97223.98
2024-02-09T08:58:42.898Z,97221.79
2024-02-09T09:01:11.061Z,97215.17
2024-02-09T09:03:39.166Z,97211.85
2024-02-09T09:06:08.801Z,97205.03
2024-02-09T09:08:36.876Z,97200.50
2024-02-09T09:11:04.868Z,97202.00
2024-02-09T09:13:32.895Z,97204.30
2024-02-09T09:16:00.868Z,97206.23
2024-02-09T09:18:30.635Z,97207.66
2024-02-09T09:20:58.585Z,97213.79
2024-02-09T09:23:26.422Z,97215.65
2024-02-09T09:25:54.518Z,97217.67
2024-02-09T09:28:22.798Z,97220.88
2024-02-09T09:30:50.650Z,97226.09
2024-02-09T09:33:18.420Z,97226.70
2024-02-09T09:35:48.229Z,97226.09
2024-02-09T09:38:20.070Z,97228.27
2024-02-09T09:40:54.494Z,97226.30
2024-02-09T09:43:23.222Z,97228.27
2024-02-09T09:45:54.697Z,97223.50
2024-02-09T09:48:22.499Z,97216.52
2024-02-09T09:50:52.040Z,97221.55
2024-02-09T09:53:22.697Z,97218.77
2024-02-09T09:55:50.857Z,97220.42
2024-02-09T09:58:18.983Z,97215.45
2024-02-09T10:00:47.897Z,97213.02
2024-02-09T10:03:16.067Z,97210.89
2024-02-09T10:05:46.991Z,97204.21
2024-02-09T10:08:14.920Z,97205.70
2024-02-09T10:10:43.225Z,97201.99
2024-02-09T10:13:12.663Z,97193.59
2024-02-09T10:15:48.569Z,97192.47
2024-02-09T10:18:16.377Z,97184.46
2024-02-09T10:20:47.534Z,97186.20
2024-02-09T10:23:16.681Z,97183.41
2024-02-09T10:25:45.189Z,97179.35
2024-02-09T10:28:14.182Z,97174.25
2024-02-09T10:30:42.797Z,97172.02
2024-02-09T10:33:13.584Z,97168.55
2024-02-09T10:35:41.848Z,97166.48
2024-02-09T10:38:09.892Z,97162.44
2024-02-09T10:40:37.885Z,97163.91
2024-02-09T10:43:05.832Z,97161.85
2024-02-09T10:45:34.496Z,97156.22
2024-02-09T10:48:03.686Z,97159.79
2024-02-09T10:50:32.644Z,97156.48
2024-02-09T10:53:02.163Z,97151.11
2024-02-09T10:55:39.030Z,97153.17
2024-02-09T10:58:08.887Z,97150.94
2024-02-09T11:00:39.447Z,97145.27
2024-02-09T11:03:08.300Z,97139.63
2024-02-09T11:05:38.201Z,97133.80
2024-02-09T11:08:07.025Z,97132.71
2024-02-09T11:10:35.178Z,97127.30
2024-02-09T11:13:03.573Z,97127.51
2024-02-09T11:15:33.394Z,97133.66
2024-02-09T11:18:01.733Z,97136.19
2024-02-09T11:20:31.504Z,97128.02
2024-02-09T11:23:01.637Z,97126.77
2024-02-09T11:25:34.001Z,97129.33
2024-02-09T11:28:07.169Z,97127.50
2024-02-09T11:30:35.370Z,97124.14
2024-02-09T11:33:03.201Z,97115.91
2024-02-09T11:35:31.256Z,97114.06
2024-02-09T11:37:59.332Z,97112.00
2024-02-09T11:40:27.050Z,97114.83
2024-02-09T11:42:54.924Z,97114.27
2024-02-09T11:45:22.785Z,97107.88
2024-02-09T11:47:52.021Z,97104.91
2024-02-09T11:50:21.876Z,97101.13
2024-02-09T11:53:01.321Z,97092.48
2024-02-09T11:55:40.971Z,97091.38
2024-02-09T11:58:09.915Z,97091.83
2024-02-09T12:00:39.692Z,97096.27
2024-02-09T12:03:09.506Z,97093.69
2024-02-09T12:05:38.595Z,97090.53
2024-02-09T12:08:07.257Z,97087.59
2024-02-09T12:10:37.214Z,97086.29
2024-02-09T12:13:06.464Z,97082.70
2024-02-09T12:15:35.008Z,97077.15
2024-02-09T12:18:03.481Z,97073.80
2024-02-09T12:20:33.778Z,97065.93
2024-02-09T12:23:05.705Z,97068.84
2024-02-09T12:25:38.902Z,97064.88
2024-02-09T12:28:11.127Z,97063.34
2024-02-09T12:30:42.722Z,97056.19
2024-02-09T12:33:13.360Z,97052.88
2024-02-09T12:35:42.593Z,97052.19
2024-02-09T12:38:11.381Z,97051.78
2024-02-09T12:40:42.952Z,97048.52
2024-02-09T12:43:13.281Z,97037.89
2024-02-09T12:45:41.013Z,97042.65
2024-02-09T12:48:09.223Z,97047.33
2024-02-09T12:50:39.215Z,97047.63
2024-02-09T12:53:07.264Z,97043.22
2024-02-09T12:55:35.350Z,97044.52
2024-02-09T12:58:06.380Z,97043.95
2024-02-09T13:00:34.774Z,97039.73
2024-02-09T13:03:02.770Z,97030.09
2024-02-09T13:05:32.124Z,97027.34
2024-02-09T13:08:00.766Z,97025.80
2024-02-09T13:10:28.601Z,97020.71
2024-02-09T13:12:56.341Z,97015.70
2024-02-09T13:15:26.175Z,97007.17
2024-02-09T13:17:57.874Z,97007.98
2024-02-09T13:20:26.879Z,97002.24
2024-02-09T13:22:56.548Z,96995.33
2024-02-09T13:25:24.591Z,96993.20
2024-02-09T13:27:52.709Z,96994.60
2024-02-09T13:30:21.690Z,96998.89
2024-02-09T13:32:49.728Z,97000.90
2024-02-09T13:35:18.996Z,96998.73
2024-02-09T13:37:47.088Z,96994.20
2024-02-09T13:40:17.679Z,96990.33
2024-02-09T13:42:50.857Z,96980.95
2024-02-09T13:45:22.736Z,96973.19
2024-02-09T13:47:53.203Z,96971.05
2024-02-09T13:50:25.376Z,96970.03
2024-02-09T13:52:55.661Z,96970.52
2024-02-09T13:55:26.210Z,96971.03
2024-02-09T13:57:55.752Z,96969.89
2024-02-09T14:00:25.613Z,96966.75
2024-02-09T14:02:53.452Z,96959.64
2024-02-09T14:05:23.686Z,96960.80
2024-02-09T14:07:52.783Z,96960.60
2024-02-09T14:10:21.268Z,96957.05
2024-02-09T14:12:49.327Z,96959.07
2024-02-09T14:15:17.443Z,96955.08
2024-02-09T14:17:46.876Z,96953.08
2024-02-09T14:20:16.829Z,96948.88
2024-02-09T14:22:44.775Z,96941.44
2024-02-09T14:25:14.120Z,96935.33
2024-02-09T14:27:43.341Z,96934.85
2024-02-09T14:30:12.988Z,96933.99
2024-02-09T14:32:40.771Z,96935.82
2024-02-09T14:35:08.738Z,96933.67
2024-02-09T14:37:36.567Z,96937.95
2024-02-09T14:40:04.802Z,96933.34
2024-02-09T14:42:32.661Z,96940.52
2024-02-09T14:45:01.259Z,96934.95
2024-02-09T14:47:30.422Z,96930.06
2024-02-09T14:49:58.324Z,96933.67
2024-02-09T14:52:28.600Z,96928.11
2024-02-09T14:54:56.385Z,96922.45
2024-02-09T14:57:24.093Z,96926.52
2024-02-09T14:59:52.304Z,96922.60
2024-02-09T15:02:20.218Z,96919.61
2024-02-09T15:04:51.318Z,96921.74
2024-02-09T15:07:22.223Z,96916.70
2024-02-09T15:09:50.487Z,96920.92
2024-02-09T15:12:19.998Z,96925.41
2024-02-09T15:14:52.442Z,96916.11
2024-02-09T15:17:24.129Z,96925.68
2024-02-09T15:19:52.203Z,96922.35
2024-02-09T15:22:20.218Z,96916.89
2024-02-09T15:24:48.181Z,96917.41
2024-02-09T15:27:16.053Z,96919.42
2024-02-09T15:29:43.770Z,96924.43
2024-02-09T15:32:14.196Z,96917.45
2024-02-09T15:34:45.794Z,96912.44
2024-02-09T15:37:14.959Z,96908.80
2024-02-09T15:39:43.117Z,96915.39
2024-02-09T15:42:10.857Z,96915.78
2024-02-09T15:44:40.124Z,96915.46
2024-02-09T15:47:07.867Z,96920.79
2024-02-09T15:49:36.724Z,96916.09
2024-02-09T15:52:04.765Z,96918.87
2024-02-09T15:54:32.570Z,96919.08
2024-02-09T15:57:00.423Z,96919.67
2024-02-09T15:59:28.362Z,96921.35
2024-02-09T16:01:56.683Z,96932.39
2024-02-09T16:04:27.145Z,96937.11
2024-02-09T16:06:57.050Z,96942.34
2024-02-09T16:09:24.706Z,96941.16
2024-02-09T16:11:52.372Z,96940.81
2024-02-09T16:14:20.106Z,96938.06
2024-02-09T16:16:47.868Z,96942.14
2024-02-09T16:19:15.690Z,96942.11
2024-02-09T16:21:43.511Z,96945.80
2024-02-09T16:24:11.676Z,96951.45
2024-02-09T16:26:40.495Z,96951.66
2024-02-09T16:29:12.465Z,96955.66
2024-02-09T16:31:41.612Z,96964.68
2024-02-09T16:34:09.580Z,96961.29
2024-02-09T16:36:40.708Z,96960.76
2024-02-09T16:39:08.529Z,96952.91
2024-02-09T16:41:36.214Z,96954.05
2024-02-09T16:44:04.524Z,96954.29
2024-02-09T16:46:32.300Z,96952.66
2024-02-09T16:49:01.297Z,96950.73
2024-02-09T16:51:29.237Z,96952.23
2024-02-09T16:53:58.804Z,96950.24
2024-02-09T16:56:26.726Z,96955.82
2024-02-09T16:58:54.709Z,96956.22
2024-02-09T17:01:23.233Z,96949.59
2024-02-09T17:03:52.215Z,96947.50
2024-02-09T17:06:20.685Z,96950.25
2024-02-09T17:08:48.618Z,96948.95
2024-02-09T17:11:16.392Z,96950.89
2024-02-09T17:13:46.840Z,96948.63
2024-02-09T17:16:14.649Z,96951.15
2024-02-09T17:18:43.396Z,96950.17
2024-02-09T17:21:14.046Z,96949.47
2024-02-09T17:23:42.381Z,96952.90
2024-02-09T17:26:11.111Z,96950.11
2024-02-09T17:28:39.017Z,96953.80
2024-02-09T17:31:08.693Z,96949.25
2024-02-09T17:33:36.766Z,96945.27
2024-02-09T17:36:05.508Z,96938.20
2024-02-09T17:38:34.879Z,96937.41
2024-02-09T17:41:10.605Z,96934.34
2024-02-09T17:43:41.387Z,96933.41
2024-02-09T17:46:09.156Z,96943.31
2024-02-09T17:48:37.532Z,96940.96
2024-02-09T17:51:07.522Z,96939.95
2024-02-09T17:53:35.674Z,96936.17
2024-02-09T17:56:04.240Z,96941.10
2024-02-09T17:58:32.142Z,96938.52
2024-02-09T18:01:00.034Z,96941.23
2024-02-09T18:03:27.901Z,96945.33
2024-02-09T18:05:55.797Z,96947.86
2024-02-09T18:08:23.653Z,96945.77
2024-02-09T18:10:51.447Z,96953.30
2024-02-09T18:13:19.332Z,96951.98
2024-02-09T18:15:47.193Z,96943.98
2024-02-09T18:18:15.253Z,96939.15
2024-02-09T18:20:43.577Z,96943.39
2024-02-09T18:23:11.419Z,96942.76
2024-02-09T18:25:39.140Z,96939.86
2024-02-09T18:28:06.909Z,96936.81
2024-02-09T18:30:35.846Z,96932.91
2024-02-09T18:33:04.338Z,96927.42
2024-02-09T18:35:33.789Z,96929.27
2024-02-09T18:38:01.624Z,96932.07
2024-02-09T18:40:31.911Z,96931.85
2024-02-09T18:42:59.827Z,96930.34
2024-02-09T18:45:27.636Z,96930.73
2024-02-09T18:47:55.388Z,96922.57
2024-02-09T18:50:23.227Z,96918.40
2024-02-09T18:52:51.781Z,96919.45
2024-02-09T18:55:20.462Z,96921.22
2024-02-09T18:57:49.415Z,96927.77
2024-02-09T19:00:17.313Z,96930.34
2024-02-09T19:02:45.096Z,96932.66
2024-02-09T19:05:14.959Z,96935.07
2024-02-09T19:07:43.152Z,96937.27
2024-02-09T19:10:11.970Z,96940.51
2024-02-09T19:12:39.832Z,96938.90
2024-02-09T19:15:11.217Z,96934.65
2024-02-09T19:17:40.227Z,96933.81
2024-02-09T19:20:12.647Z,96929.54
2024-02-09T19:22:40.464Z,96925.36
2024-02-09T19:25:08.546Z,96929.75
2024-02-09T19:27:36.340Z,96928.30
2024-02-09T19:30:04.712Z,96924.50
2024-02-09T19:32:32.464Z,96923.83
2024-02-09T19:35:00.530Z,96926.33
2024-02-09T19:37:29.598Z,96929.23
2024-02-09T19:39:57.432Z,96933.21
2024-02-09T19:42:27.524Z,96936.48
2024-02-09T19:44:56.711Z,96929.50
2024-02-09T19:47:24.863Z,96929.05
2024-02-09T19:49:53.776Z,96928.73
2024-02-09T19:52:21.844Z,96924.46
2024-02-09T19:54:50.213Z,96921.63
2024-02-09T19:57:18.384Z,96917.05
2024-02-09T19:59:50.468Z,96923.67
2024-02-09T20:02:24.994Z,96926.23
2024-02-09T20:04:59.594Z,96929.86
2024-02-09T20:07:29.295Z,96930.05
2024-02-09T20:09:59.048Z,96930.22
2024-02-09T20:12:26.984Z,96927.20
2024-02-09T20:14:56.049Z,96928.89
2024-02-09T20:17:27.373Z,96932.16
2024-02-09T20:19:55.342Z,96934.71
2024-02-09T20:22:23.288Z,96936.77
2024-02-09T20:24:51.200Z,96937.30
2024-02-09T20:27:19.804Z,96936.55
2024-02-09T20:29:47.642Z,96936.05
2024-02-09T20:32:15.388Z,96939.50
2024-02-09T20:34:44.226Z,96941.44
2024-02-09T20:37:15.683Z,96941.86
2024-02-09T20:39:43.636Z,96935.82
2024-02-09T20:42:11.607Z,96941.94
2024-02-09T20:44:41.570Z,96941.48
2024-02-09T20:47:11.212Z,96940.15
2024-02-09T20:49:42.794Z,96935.92
2024-02-09T20:52:13.062Z,96945.58
2024-02-09T20:54:42.067Z,96942.02
2024-02-09T20:57:10.027Z,96940.38
2024-02-09T20:59:42.036Z,96943.13
2024-02-09T21:02:13.950Z,96950.40
2024-02-09T21:04:43.251Z,96951.13
2024-02-09T21:07:11.369Z,96957.59
2024-02-09T21:09:39.357Z,96956.75
2024-02-09T21:12:11.085Z,96948.89
2024-02-09T21:14:39.053Z,96945.11
2024-02-09T21:17:06.994Z,96945.41
2024-02-09T21:19:36.968Z,96943.91
2024-02-09T21:22:05.948Z,96944.66
2024-02-09T21:24:33.626Z,96948.92
2024-02-09T21:27:01.565Z,96948.46
2024-02-09T21:29:29.340Z,96951.59
2024-02-09T21:31:59.642Z,96952.89
2024-02-09T21:34:28.081Z,96953.14
2024-02-09T21:36:55.938Z,96956.11
2024-02-09T21:39:23.586Z,96954.84
2024-02-09T21:41:51.315Z,96953.41
2024-02-09T21:44:20.476Z,96956.87
2024-02-09T21:46:49.160Z,96956.55
2024-02-09T21:49:17.071Z,96953.89
2024-02-09T21:51:45.292Z,96954.12
2024-02-09T21:54:14.592Z,96951.62
2024-02-09T21:56:44.652Z,96949.02
2024-02-09T21:59:15.408Z,96953.14
2024-02-09T22:01:43.487Z,96951.74
2024-02-09T22:04:11.244Z,96956.30
2024-02-09T22:06:39.895Z,96957.28
2024-02-09T22:09:07.608Z,96964.19
2024-02-09T22:11:36.280Z,96971.23
2024-02-09T22:14:11.524Z,96974.90
2024-02-09T22:16:41.145Z,96972.80
2024-02-09T22:19:09.787Z,96968.90
2024-02-09T22:21:37.731Z,96967.98
2024-02-09T22:24:05.634Z,96962.27
2024-02-09T22:26:33.535Z,96961.98
2024-02-09T22:29:01.347Z,96965.73
2024-02-09T22:31:31.061Z,96966.39
2024-02-09T22:33:58.843Z,96964.06
2024-02-09T22:36:27.201Z,96968.14
2024-02-09T22:38:55.076Z,96965.16
2024-02-09T22:41:25.176Z,96970.48
2024-02-09T22:43:56.264Z,96970.15
2024-02-09T22:46:25.402Z,96972.15
2024-02-09T22:48:53.406Z,96969.63
2024-02-09T22:51:21.158Z,96974.69
2024-02-09T22:53:52.837Z,96983.62
2024-02-09T22:56:22.170Z,96976.88
2024-02-09T22:58:50.557Z,96978.96
2024-02-09T23:01:18.806Z,96978.58
2024-02-09T23:03:49.453Z,96983.38
2024-02-09T23:06:20.930Z,96977.48
2024-02-09T23:08:51.123Z,96978.05
2024-02-09T23:11:19.280Z,96973.88
2024-02-09T23:13:47.213Z,96972.45
2024-02-09T23:16:19.720Z,96966.97
2024-02-09T23:18:47.850Z,96964.95
2024-02-09T23:21:15.624Z,96963.67
2024-02-09T23:23:44.847Z,96963.47
2024-02-09T23:26:14.665Z,96961.33
2024-02-09T23:28:42.481Z,96957.77
2024-02-09T23:31:10.331Z,96958.69
2024-02-09T23:33:38.289Z,96956.58
2024-02-09T23:36:06.312Z,96956.09
2024-02-09T23:38:34.551Z,96951.61
2024-02-09T23:41:02.854Z,96952.35
2024-02-09T23:43:38.613Z,96951.22
2024-02-09T23:46:09.983Z,96949.02
2024-02-09T23:48:39.941Z,96950.04
2024-02-09T23:51:10.370Z,96947.52
2024-02-09T23:53:40.144Z,96942.70
2024-02-09T23:56:08.971Z,96942.55
2024-02-09T23:58:36.900Z,96940.48
